createdAt,value
2018-10-16T00:01:10.434Z,10.40
2018-10-16T00:03:38.981Z,10.20
2018-10-16T00:06:08.020Z,10.10
2018-10-16T00:08:36.903Z,10.00
2018-10-16T00:11:05.851Z,10.10
2018-10-16T00:13:34.478Z,10.30
2018-10-16T00:16:02.991Z,10.20
2018-10-16T00:18:31.496Z,10.30
2018-10-16T00:21:00.096Z,10.40
2018-10-16T00:23:28.606Z,10.10
2018-10-16T00:25:57.124Z,9.90
2018-10-16T00:28:25.648Z,9.80
2018-10-16T00:30:54.120Z,9.80
2018-10-16T00:33:22.688Z,9.60
2018-10-16T00:35:51.345Z,9.60
2018-10-16T00:38:20.014Z,9.70
2018-10-16T00:40:48.593Z,9.80
2018-10-16T00:43:17.181Z,9.80
2018-10-16T00:45:45.739Z,9.90
2018-10-16T00:48:14.307Z,10.10
2018-10-16T00:50:42.873Z,10.00
2018-10-16T00:53:11.429Z,9.90
2018-10-16T00:55:39.956Z,10.20
2018-10-16T00:58:08.701Z,10.10
2018-10-16T01:00:37.255Z,10.10
2018-10-16T01:03:06.271Z,9.90
2018-10-16T01:05:34.830Z,9.70
2018-10-16T01:08:03.454Z,9.90
2018-10-16T01:10:31.963Z,10.00
2018-10-16T01:13:00.513Z,9.80
2018-10-16T01:15:29.069Z,9.90
2018-10-16T01:17:57.603Z,9.90
2018-10-16T01:20:26.093Z,9.80
2018-10-16T01:22:54.612Z,10.00
2018-10-16T01:25:23.140Z,9.80
2018-10-16T01:27:51.685Z,9.80
2018-10-16T01:30:20.212Z,9.60
2018-10-16T01:32:48.781Z,9.50
2018-10-16T01:35:17.275Z,9.40
2018-10-16T01:37:45.766Z,9.50
2018-10-16T01:40:14.302Z,9.30
2018-10-16T01:42:42.994Z,9.30
2018-10-16T01:45:12.010Z,9.40
2018-10-16T01:47:40.527Z,9.50
2018-10-16T01:50:09.604Z,9.10
2018-10-16T01:52:38.502Z,9.00
2018-10-16T01:55:07.376Z,9.20
2018-10-16T01:57:36.079Z,9.40
2018-10-16T02:00:11.428Z,9.50
2018-10-16T02:02:40.321Z,9.60
2018-10-16T02:05:09.092Z,9.30
2018-10-16T02:07:37.622Z,9.10
2018-10-16T02:10:06.659Z,9.10
2018-10-16T02:12:35.160Z,9.40
2018-10-16T02:15:03.826Z,9.50
2018-10-16T02:17:32.551Z,9.50
2018-10-16T02:20:01.031Z,9.30
2018-10-16T02:22:29.572Z,9.10
2018-10-16T02:24:58.124Z,9.30
2018-10-16T02:27:26.666Z,9.10
2018-10-16T02:29:55.149Z,9.00
2018-10-16T02:32:23.590Z,9.30
2018-10-16T02:34:52.124Z,9.30
2018-10-16T02:37:20.638Z,9.00
2018-10-16T02:39:49.189Z,9.10
2018-10-16T02:42:17.848Z,9.30
2018-10-16T02:44:46.431Z,9.30
2018-10-16T02:47:15.007Z,9.40
2018-10-16T02:49:43.547Z,8.90
2018-10-16T02:52:12.058Z,8.60
2018-10-16T02:54:40.597Z,8.60
2018-10-16T02:57:09.159Z,8.50
2018-10-16T02:59:37.692Z,8.30
2018-10-16T03:02:06.730Z,8.40
2018-10-16T03:04:35.256Z,8.70
2018-10-16T03:07:03.834Z,8.70
2018-10-16T03:09:32.372Z,8.70
2018-10-16T03:12:00.940Z,8.80
2018-10-16T03:14:29.490Z,9.10
2018-10-16T03:16:57.999Z,8.70
2018-10-16T03:19:26.682Z,8.60
2018-10-16T03:21:55.169Z,8.80
2018-10-16T03:24:23.745Z,8.80
2018-10-16T03:26:52.233Z,8.60
2018-10-16T03:29:20.746Z,8.90
2018-10-16T03:31:49.330Z,8.90
2018-10-16T03:34:17.829Z,8.30
2018-10-16T03:36:46.312Z,8.30
2018-10-16T03:39:14.933Z,8.60
2018-10-16T03:41:43.418Z,8.50
2018-10-16T03:44:14.331Z,8.10
2018-10-16T03:46:42.894Z,8.30
2018-10-16T03:49:12.064Z,8.50
2018-10-16T03:51:41.566Z,8.50
2018-10-16T03:54:13.227Z,8.50
2018-10-16T03:56:41.777Z,8.60
2018-10-16T03:59:10.308Z,8.70
2018-10-16T04:01:38.895Z,8.70
2018-10-16T04:04:07.456Z,8.70
2018-10-16T04:06:35.979Z,8.60
2018-10-16T04:09:11.302Z,8.50
2018-10-16T04:11:39.897Z,8.30
2018-10-16T04:14:08.410Z,8.30
2018-10-16T04:16:36.913Z,8.20
2018-10-16T04:19:06.196Z,8.50
2018-10-16T04:21:38.732Z,8.50
2018-10-16T04:24:07.323Z,8.30
2018-10-16T04:26:35.874Z,7.90
2018-10-16T04:29:04.777Z,7.90
2018-10-16T04:31:33.243Z,8.10
2018-10-16T04:34:01.957Z,8.30
2018-10-16T04:36:30.538Z,8.30
2018-10-16T04:38:59.055Z,8.10
2018-10-16T04:41:27.592Z,8.00
2018-10-16T04:43:56.627Z,8.30
2018-10-16T04:46:25.913Z,8.50
2018-10-16T04:48:54.646Z,8.50
2018-10-16T04:51:23.257Z,8.30
2018-10-16T04:53:51.995Z,8.40
2018-10-16T04:56:20.504Z,8.40
2018-10-16T04:58:49.244Z,8.40
2018-10-16T05:01:17.826Z,8.10
2018-10-16T05:03:46.331Z,8.30
2018-10-16T05:06:14.928Z,8.20
2018-10-16T05:08:43.471Z,8.00
2018-10-16T05:11:11.976Z,8.10
2018-10-16T05:13:40.507Z,7.80
2018-10-16T05:16:09.054Z,7.70
2018-10-16T05:18:37.517Z,8.00
2018-10-16T05:21:06.477Z,8.10
2018-10-16T05:23:34.996Z,8.10
2018-10-16T05:26:03.916Z,8.10
2018-10-16T05:28:32.472Z,8.40
2018-10-16T05:31:01.071Z,8.50
2018-10-16T05:33:29.555Z,8.50
2018-10-16T05:35:58.225Z,7.90
2018-10-16T05:38:26.879Z,7.70
2018-10-16T05:40:55.483Z,7.80
2018-10-16T05:43:24.070Z,8.00
2018-10-16T05:45:52.554Z,8.10
2018-10-16T05:48:21.095Z,8.00
2018-10-16T05:50:49.599Z,8.10
2018-10-16T05:53:18.214Z,8.10
2018-10-16T05:55:47.558Z,8.00
2018-10-16T05:58:16.073Z,7.90
2018-10-16T06:00:46.276Z,7.60
2018-10-16T06:03:14.842Z,7.90
2018-10-16T06:05:43.553Z,8.10
2018-10-16T06:08:11.991Z,7.90
2018-10-16T06:10:40.743Z,8.00
2018-10-16T06:13:09.257Z,7.80
2018-10-16T06:15:37.833Z,7.80
2018-10-16T06:18:12.851Z,8.10
2018-10-16T06:20:41.433Z,7.90
2018-10-16T06:23:09.918Z,8.40
2018-10-16T06:25:38.462Z,8.00
2018-10-16T06:28:25.778Z,7.80
2018-10-16T06:30:54.381Z,7.90
2018-10-16T06:33:28.211Z,7.70
2018-10-16T06:35:56.667Z,7.80
2018-10-16T06:38:25.159Z,8.20
2018-10-16T06:40:54.237Z,8.20
2018-10-16T06:43:22.587Z,8.20
2018-10-16T06:45:51.150Z,8.00
2018-10-16T06:48:19.873Z,8.10
2018-10-16T06:50:48.142Z,8.20
2018-10-16T06:53:16.696Z,8.20
2018-10-16T06:55:45.267Z,8.30
2018-10-16T06:58:13.883Z,8.30
2018-10-16T07:00:42.442Z,8.30
2018-10-16T07:03:11.081Z,8.20
2018-10-16T07:05:39.674Z,8.20
2018-10-16T07:08:08.389Z,8.50
2018-10-16T07:10:37.218Z,8.50
2018-10-16T07:13:05.836Z,8.30
2018-10-16T07:15:34.588Z,8.20
2018-10-16T07:18:03.400Z,8.10
2018-10-16T07:20:32.216Z,8.20
2018-10-16T07:34:32.885Z,8.50
2018-10-16T07:37:01.431Z,8.60
2018-10-16T07:39:30.004Z,8.90
2018-10-16T07:41:58.593Z,9.00
2018-10-16T07:44:27.137Z,9.10
2018-10-16T07:46:55.897Z,9.40
2018-10-16T07:49:24.461Z,9.40
2018-10-16T07:51:52.976Z,9.70
2018-10-16T07:54:21.502Z,9.80
2018-10-16T07:56:50.154Z,9.90
2018-10-16T07:59:19.054Z,10.30
2018-10-16T08:01:47.570Z,10.70
2018-10-16T08:04:16.113Z,10.80
2018-10-16T08:06:44.709Z,11.10
2018-10-16T08:09:19.962Z,11.50
2018-10-16T08:11:49.525Z,11.90
2018-10-16T08:14:19.010Z,11.70
2018-10-16T08:16:49.060Z,11.90
2018-10-16T08:19:17.626Z,11.70
2018-10-16T08:21:47.252Z,11.80
2018-10-16T08:24:16.002Z,11.80
2018-10-16T08:26:44.632Z,11.90
2018-10-16T08:29:13.108Z,12.10
2018-10-16T08:31:41.844Z,12.20
2018-10-16T08:34:10.402Z,12.10
2018-10-16T08:36:39.162Z,12.50
2018-10-16T08:39:11.056Z,12.70
2018-10-16T08:42:23.296Z,12.90
2018-10-16T08:45:27.958Z,13.00
2018-10-16T08:48:07.785Z,13.30
2018-10-16T08:50:48.830Z,13.70
2018-10-16T08:53:17.431Z,13.80
2018-10-16T08:55:46.086Z,13.80
2018-10-16T08:58:14.954Z,13.60
2018-10-16T09:00:43.963Z,13.70
2018-10-16T09:03:12.478Z,14.20
2018-10-16T09:05:41.454Z,14.40
2018-10-16T09:08:10.013Z,14.70
2018-10-16T09:10:38.684Z,15.40
2018-10-16T09:13:07.598Z,15.60
2018-10-16T09:15:36.085Z,15.80
2018-10-16T09:18:11.744Z,15.90
2018-10-16T09:20:40.316Z,15.60
2018-10-16T09:23:08.944Z,15.80
2018-10-16T09:25:37.507Z,16.00
2018-10-16T09:28:06.491Z,16.50
2018-10-16T09:30:35.017Z,16.80
2018-10-16T09:33:03.547Z,16.80
2018-10-16T09:35:32.026Z,16.90
2018-10-16T09:38:00.562Z,17.30
2018-10-16T09:40:29.127Z,17.40
2018-10-16T09:42:57.671Z,17.60
2018-10-16T09:45:26.170Z,17.50
2018-10-16T09:47:54.635Z,17.30
2018-10-16T09:50:23.203Z,17.20
2018-10-16T09:52:51.727Z,17.40
2018-10-16T09:55:20.310Z,17.50
2018-10-16T09:57:48.866Z,17.90
2018-10-16T10:00:22.725Z,18.10
2018-10-16T10:02:51.288Z,18.10
2018-10-16T10:05:19.861Z,18.40
2018-10-16T10:07:48.312Z,18.80
2018-10-16T10:10:16.876Z,19.10
2018-10-16T10:12:45.363Z,19.30
2018-10-16T10:15:13.912Z,19.40
2018-10-16T10:17:42.500Z,19.20
2018-10-16T10:20:11.168Z,19.10
2018-10-16T10:22:39.727Z,18.50
2018-10-16T10:25:08.413Z,18.50
2018-10-16T10:27:36.885Z,18.40
2018-10-16T10:30:07.924Z,18.30
2018-10-16T10:32:36.475Z,18.50
2018-10-16T10:35:06.003Z,19.00
2018-10-16T10:37:35.427Z,19.60
2018-10-16T10:40:04.199Z,19.40
2018-10-16T10:42:32.853Z,19.10
2018-10-16T10:45:01.738Z,19.20
2018-10-16T10:47:30.517Z,19.20
2018-10-16T10:49:59.136Z,19.20
2018-10-16T10:52:27.629Z,19.40
2018-10-16T10:54:56.152Z,19.50
2018-10-16T10:57:24.782Z,19.50
2018-10-16T10:59:53.299Z,19.70
2018-10-16T11:02:21.887Z,19.90
2018-10-16T11:04:50.418Z,20.10
2018-10-16T11:07:18.934Z,20.30
2018-10-16T11:09:47.407Z,20.30
2018-10-16T11:12:15.903Z,20.30
2018-10-16T11:14:44.428Z,20.50
2018-10-16T11:17:12.921Z,20.60
2018-10-16T11:19:41.482Z,20.80
2018-10-16T11:22:10.074Z,20.80
2018-10-16T11:24:38.562Z,20.90
2018-10-16T11:27:12.704Z,21.00
2018-10-16T11:29:41.221Z,21.10
2018-10-16T11:32:09.847Z,20.90
2018-10-16T11:34:38.336Z,21.10
2018-10-16T11:37:06.969Z,21.10
2018-10-16T11:39:35.433Z,21.30
2018-10-16T11:42:03.987Z,21.40
2018-10-16T11:44:32.523Z,21.60
2018-10-16T11:47:01.075Z,21.90
2018-10-16T11:49:29.606Z,21.80
2018-10-16T11:51:58.192Z,21.50
2018-10-16T11:54:26.781Z,21.40
2018-10-16T11:56:55.521Z,21.50
2018-10-16T11:59:24.199Z,21.70
2018-10-16T12:01:52.783Z,21.90
2018-10-16T12:04:21.347Z,22.10
2018-10-16T12:06:50.240Z,21.90
2018-10-16T12:09:18.847Z,22.00
2018-10-16T12:11:50.522Z,22.00
2018-10-16T12:14:19.404Z,22.00
2018-10-16T12:16:53.340Z,22.10
2018-10-16T12:19:25.782Z,22.20
2018-10-16T12:21:54.424Z,22.50
2018-10-16T12:24:22.984Z,22.50
2018-10-16T12:26:51.645Z,22.50
2018-10-16T12:29:20.189Z,22.40
2018-10-16T12:31:48.801Z,22.40
2018-10-16T12:34:17.477Z,23.30
2018-10-16T12:36:46.103Z,23.80
2018-10-16T12:39:14.692Z,23.60
2018-10-16T12:41:43.104Z,23.00
2018-10-16T12:44:11.652Z,23.20
2018-10-16T12:46:40.428Z,23.30
2018-10-16T12:49:08.908Z,23.00
2018-10-16T12:51:37.421Z,23.00
2018-10-16T12:54:07.795Z,22.90
2018-10-16T12:56:36.658Z,23.70
2018-10-16T12:59:05.372Z,23.60
2018-10-16T13:01:33.863Z,23.60
2018-10-16T13:04:02.435Z,23.50
2018-10-16T13:06:30.973Z,23.60
2018-10-16T13:08:59.836Z,23.40
2018-10-16T13:11:28.372Z,23.50
2018-10-16T13:13:56.972Z,23.20
2018-10-16T13:16:25.526Z,23.20
2018-10-16T13:18:54.034Z,23.10
2018-10-16T13:21:22.567Z,23.00
2018-10-16T13:23:51.337Z,23.10
2018-10-16T13:26:19.871Z,23.00
2018-10-16T13:28:51.411Z,23.10
2018-10-16T13:31:19.940Z,23.00
2018-10-16T13:33:48.727Z,23.10
2018-10-16T13:36:17.292Z,23.00
2018-10-16T13:38:46.031Z,23.00
2018-10-16T13:41:14.552Z,23.00
2018-10-16T13:43:43.216Z,23.10
2018-10-16T13:46:11.872Z,23.10
2018-10-16T13:48:40.391Z,23.10
2018-10-16T13:51:09.032Z,23.20
2018-10-16T13:53:37.585Z,23.30
2018-10-16T13:56:06.937Z,23.20
2018-10-16T13:58:35.465Z,23.10
2018-10-16T14:01:04.164Z,23.10
2018-10-16T14:03:32.761Z,23.10
2018-10-16T14:06:01.539Z,23.20
2018-10-16T14:08:30.115Z,23.20
2018-10-16T14:10:58.640Z,23.20
2018-10-16T14:13:27.485Z,23.20
2018-10-16T14:15:56.063Z,23.20
2018-10-16T14:18:24.638Z,23.20
2018-10-16T14:20:53.187Z,23.20
2018-10-16T14:23:21.932Z,23.20
2018-10-16T14:25:50.525Z,23.20
2018-10-16T14:28:19.206Z,23.30
2018-10-16T14:30:47.794Z,23.30
2018-10-16T14:33:16.512Z,23.20
2018-10-16T14:35:45.116Z,23.20
2018-10-16T14:38:13.763Z,23.20
2018-10-16T14:40:42.473Z,23.20
2018-10-16T14:43:10.967Z,23.20
2018-10-16T14:45:39.571Z,23.20
2018-10-16T14:48:08.229Z,23.20
2018-10-16T14:50:36.639Z,23.20
2018-10-16T14:53:05.316Z,23.10
2018-10-16T14:55:33.905Z,23.00
2018-10-16T14:58:02.519Z,23.00
2018-10-16T15:00:30.986Z,23.00
2018-10-16T15:02:59.620Z,23.00
2018-10-16T15:05:28.161Z,23.00
2018-10-16T15:07:56.684Z,23.00
2018-10-16T15:10:25.350Z,23.00
2018-10-16T15:12:53.871Z,23.00
2018-10-16T15:15:23.077Z,23.00
2018-10-16T15:17:51.611Z,22.90
2018-10-16T15:20:20.126Z,22.90
2018-10-16T15:22:48.612Z,22.90
2018-10-16T15:25:17.282Z,22.80
2018-10-16T15:27:45.830Z,22.70
2018-10-16T15:30:14.465Z,22.60
2018-10-16T15:32:43.002Z,22.70
2018-10-16T15:35:11.920Z,22.70
2018-10-16T15:37:40.542Z,22.70
2018-10-16T15:40:10.735Z,22.60
2018-10-16T15:42:39.540Z,22.60
2018-10-16T15:45:12.713Z,22.60
2018-10-16T15:47:41.904Z,22.50
2018-10-16T15:50:10.960Z,22.40
2018-10-16T15:52:40.158Z,22.30
2018-10-16T15:55:10.243Z,22.20
2018-10-16T15:57:39.155Z,22.20
2018-10-16T16:00:17.254Z,22.20
2018-10-16T16:02:45.674Z,22.10
2018-10-16T16:05:14.243Z,22.10
2018-10-16T16:07:42.894Z,22.00
2018-10-16T16:10:13.837Z,21.90
2018-10-16T16:12:42.401Z,21.80
2018-10-16T16:15:11.921Z,21.80
2018-10-16T16:17:40.803Z,21.80
2018-10-16T16:20:11.258Z,21.60
2018-10-16T16:22:39.921Z,21.60
2018-10-16T16:25:10.267Z,21.40
2018-10-16T16:27:39.209Z,21.30
2018-10-16T16:30:12.059Z,21.20
2018-10-16T16:32:40.606Z,21.20
2018-10-16T16:35:09.331Z,21.10
2018-10-16T16:37:37.879Z,20.90
2018-10-16T16:40:08.518Z,20.80
2018-10-16T16:42:37.119Z,20.70
2018-10-16T16:45:09.950Z,20.60
2018-10-16T16:47:38.746Z,20.40
2018-10-16T16:50:08.795Z,20.50
2018-10-16T16:52:37.422Z,20.70
2018-10-16T16:55:07.481Z,20.80
2018-10-16T16:57:36.107Z,20.80
2018-10-16T17:00:12.167Z,20.80
2018-10-16T17:02:41.939Z,20.60
2018-10-16T17:05:11.332Z,20.30
2018-10-16T17:07:40.366Z,20.00
2018-10-16T17:10:09.538Z,19.90
2018-10-16T17:12:38.718Z,19.70
2018-10-16T17:15:09.385Z,19.50
2018-10-16T17:17:38.220Z,19.50
2018-10-16T17:20:10.666Z,19.50
2018-10-16T17:22:39.271Z,19.50
2018-10-16T17:25:09.352Z,19.50
2018-10-16T17:27:37.864Z,19.50
2018-10-16T17:30:09.996Z,19.60
2018-10-16T17:32:38.541Z,19.60
2018-10-16T17:35:07.820Z,19.40
2018-10-16T17:37:36.434Z,19.40
2018-10-16T17:40:05.573Z,19.40
2018-10-16T17:42:34.104Z,19.20
2018-10-16T17:45:08.422Z,19.10
2018-10-16T17:47:37.271Z,19.00
2018-10-16T17:50:07.553Z,19.10
2018-10-16T17:52:36.169Z,19.10
2018-10-16T17:55:05.225Z,18.70
2018-10-16T17:57:33.966Z,18.50
2018-10-16T18:00:04.776Z,18.60
2018-10-16T18:02:33.701Z,18.40
2018-10-16T18:05:02.286Z,18.30
2018-10-16T18:07:30.818Z,18.10
2018-10-16T18:09:59.408Z,18.30
2018-10-16T18:12:27.983Z,18.20
2018-10-16T18:14:56.572Z,18.30
2018-10-16T18:17:25.321Z,18.40
2018-10-16T18:19:53.889Z,18.30
2018-10-16T18:22:22.566Z,18.30
2018-10-16T18:24:51.108Z,18.10
2018-10-16T18:27:19.759Z,18.10
2018-10-16T18:29:48.492Z,18.10
2018-10-16T18:32:17.010Z,18.00
2018-10-16T18:34:45.594Z,17.80
2018-10-16T18:37:14.201Z,17.80
2018-10-16T18:39:43.120Z,17.60
2018-10-16T18:42:11.585Z,17.50
2018-10-16T18:44:40.223Z,17.50
2018-10-16T18:47:08.768Z,17.50
2018-10-16T18:49:38.960Z,17.70
2018-10-16T18:52:07.548Z,17.50
2018-10-16T18:54:36.144Z,17.30
2018-10-16T18:57:05.249Z,17.20
2018-10-16T18:59:33.768Z,17.30
2018-10-16T19:02:02.361Z,17.40
2018-10-16T19:04:30.974Z,17.30
2018-10-16T19:06:59.507Z,17.30
2018-10-16T19:09:28.154Z,17.40
2018-10-16T19:11:56.772Z,17.20
2018-10-16T19:14:25.357Z,17.00
2018-10-16T19:16:53.893Z,16.80
2018-10-16T19:19:22.375Z,16.90
2018-10-16T19:21:50.910Z,16.80
2018-10-16T19:24:19.451Z,16.60
2018-10-16T19:26:48.076Z,16.40
2018-10-16T19:29:16.615Z,16.40
2018-10-16T19:31:45.211Z,16.30
2018-10-16T19:34:13.838Z,16.20
2018-10-16T19:36:42.447Z,16.30
2018-10-16T19:39:12.057Z,16.50
2018-10-16T19:41:41.183Z,16.30
2018-10-16T19:44:09.809Z,16.10
2018-10-16T19:46:38.477Z,15.80
2018-10-16T19:49:07.063Z,15.80
2018-10-16T19:51:35.639Z,15.90
2018-10-16T19:54:18.842Z,16.00
2018-10-16T19:56:47.383Z,16.10
2018-10-16T19:59:15.923Z,16.00
2018-10-16T20:01:44.508Z,16.10
2018-10-16T20:04:13.096Z,15.70
2018-10-16T20:06:41.640Z,15.30
2018-10-16T20:09:13.372Z,15.20
2018-10-16T20:11:41.917Z,15.30
2018-10-16T20:14:10.582Z,15.30
2018-10-16T20:16:39.114Z,15.10
2018-10-16T20:19:07.992Z,15.20
2018-10-16T20:21:36.638Z,15.10
2018-10-16T20:24:05.987Z,15.10
2018-10-16T20:26:34.488Z,15.00
2018-10-16T20:29:03.181Z,15.10
2018-10-16T20:31:31.678Z,15.20
2018-10-16T20:34:00.253Z,15.20
2018-10-16T20:36:29.624Z,15.30
2018-10-16T20:38:58.165Z,15.20
2018-10-16T20:41:26.732Z,15.20
2018-10-16T20:43:55.349Z,14.90
2018-10-16T20:46:23.990Z,14.80
2018-10-16T20:48:52.496Z,14.60
2018-10-16T20:51:21.045Z,14.60
2018-10-16T20:53:49.577Z,14.50
2018-10-16T20:56:18.096Z,14.50
2018-10-16T20:58:46.620Z,14.40
2018-10-16T21:01:15.635Z,14.50
2018-10-16T21:03:44.217Z,14.60
2018-10-16T21:06:13.032Z,14.40
2018-10-16T21:08:41.390Z,14.50
2018-10-16T21:11:09.903Z,14.50
2018-10-16T21:13:38.456Z,14.30
2018-10-16T21:16:07.140Z,14.20
2018-10-16T21:18:35.772Z,14.10
2018-10-16T21:21:04.406Z,14.10
2018-10-16T21:23:33.127Z,14.00
2018-10-16T21:26:01.912Z,14.10
2018-10-16T21:28:30.446Z,14.10
2018-10-16T21:30:59.000Z,14.00
2018-10-16T21:33:27.539Z,14.00
2018-10-16T21:35:56.073Z,13.90
2018-10-16T21:38:24.628Z,13.90
2018-10-16T21:40:53.202Z,14.00
2018-10-16T21:43:21.722Z,13.80
2018-10-16T21:45:50.282Z,13.80
2018-10-16T21:48:18.888Z,13.80
2018-10-16T21:50:47.687Z,13.80
2018-10-16T21:53:16.242Z,13.60
2018-10-16T21:55:44.781Z,13.50
2018-10-16T21:58:13.336Z,13.60
2018-10-16T22:00:47.134Z,13.60
2018-10-16T22:03:15.735Z,13.30
2018-10-16T22:05:44.295Z,13.40
2018-10-16T22:08:12.896Z,13.30
2018-10-16T22:10:41.457Z,13.30
2018-10-16T22:13:11.022Z,13.40
2018-10-16T22:15:39.610Z,13.20
2018-10-16T22:18:11.749Z,13.10
2018-10-16T22:20:40.224Z,13.20
2018-10-16T22:23:08.911Z,13.20
2018-10-16T22:25:37.435Z,13.00
2018-10-16T22:28:05.982Z,12.80
2018-10-16T22:30:34.481Z,13.00
2018-10-16T22:33:02.963Z,13.10
2018-10-16T22:35:31.841Z,13.10
2018-10-16T22:38:00.539Z,13.00
2018-10-16T22:40:29.086Z,13.00
2018-10-16T22:42:57.694Z,13.00
2018-10-16T22:45:26.157Z,12.70
2018-10-16T22:47:54.711Z,12.60
2018-10-16T22:50:23.220Z,12.40
2018-10-16T22:52:51.764Z,12.60
2018-10-16T22:55:20.282Z,12.70
2018-10-16T22:57:48.912Z,12.50
2018-10-16T23:00:18.488Z,12.30
2018-10-16T23:02:47.817Z,12.50
2018-10-16T23:05:16.482Z,12.40
2018-10-16T23:07:46.387Z,12.40
2018-10-16T23:10:15.594Z,12.40
2018-10-16T23:12:44.653Z,12.30
2018-10-16T23:15:13.210Z,12.10
2018-10-16T23:17:41.761Z,12.10
2018-10-16T23:20:11.632Z,12.10
2018-10-16T23:22:40.512Z,12.20
2018-10-16T23:25:09.198Z,12.20
2018-10-16T23:27:37.613Z,12.30
2018-10-16T23:30:06.666Z,12.40
2018-10-16T23:32:35.223Z,12.40
2018-10-16T23:35:03.919Z,12.30
2018-10-16T23:37:32.352Z,12.00
2018-10-16T23:40:00.896Z,12.20
2018-10-16T23:42:29.391Z,12.20
2018-10-16T23:44:57.901Z,11.90
2018-10-16T23:47:26.424Z,11.80
2018-10-16T23:49:54.975Z,11.70
2018-10-16T23:52:23.489Z,11.50
2018-10-16T23:54:52.106Z,11.40
2018-10-16T23:57:20.641Z,11.60
2018-10-16T23:59:49.165Z,11.60
